ADDS TAF Board (Experimental) INFO Settings
IDs: Format: Expanded Condensed

KSTL - St Louis/Lambert Int, MO, US

Issued at 1135 UTC 31 May 2016
Updated at: 1153 UTC 31 May 2016
Time1051Z 31/12Z 31/13Z 31/14Z 31/15Z 31/16Z 31/17Z 31/18Z 31/19Z 31/20Z 31/21Z 31/22Z 31/23Z 01/00Z
Type OBS PRVL
  [TEMP]  
PRVL
  [TEMP]  
PRVL PRVL PRVL PRVL PRVL PRVL PRVL PRVL PRVL PRVL PRVL
VIS 10 >6
  [3]  
>6
  [3]  
>6 >6 >6 >6 >6 >6 >6 >6 >6 >6 >6
CIG 150 70
  [35]  
70
  [35]  
70 80 80 80 80 -- -- -- -- -- --
Cover OVC OVC
  [OVC]  
OVC
  [OVC]  
OVC BKN BKN BKN BKN SCT SCT SCT SCT SCT SCT
FltCat VFR VFR
  [MVFR]  
VFR
  [MVFR]  
VFR VFR VFR VFR VFR VFR VFR VFR VFR VFR VFR
WX -- -RA VCTS
  [TSRA]  
-RA VCTS
  [TSRA]  
-RA VCTS -- -- -- -- -- -- -- -- -- --
WDir VRB VRB
[VRB]
VRB
[VRB]
VRB 140 140 140 140 150 150 150 150 150 150
WSpd 0 4
  [4]  
4
  [4]  
4 8 8 8 8 8 8 8 8 8 8
WGst -- --
  [--]  
--
  [--]  
-- -- -- -- -- -- -- -- -- -- --
R06/24
XWnd VRB 4 4 VRB -8 -8 -8 -8 -8 -8 -8 -8 -8 -8
XGst -- 0 0 -- -- -- -- -- -- -- -- -- -- --
HWnd VRB 2 2 VRB 2 2 2 2 0 0 0 0 0 0
HGst -- 0 0 -- -- -- -- -- -- -- -- -- -- --
R11/29
XWnd VRB 3 3 VRB -2 -2 -2 -2 -4 -4 -4 -4 -4 -4
XGst -- 0 0 -- -- -- -- -- -- -- -- -- -- --
HWnd VRB -2 -2 VRB 8 8 8 8 7 7 7 7 7 7
HGst -- 0 0 -- -- -- -- -- -- -- -- -- -- --
R12/30
XWnd VRB 3 3 VRB -2 -2 -2 -2 -4 -4 -4 -4 -4 -4
XGst -- 0 0 -- -- -- -- -- -- -- -- -- -- --
HWnd VRB -2 -2 VRB 8 8 8 8 7 7 7 7 7 7
HGst -- 0 0 -- -- -- -- -- -- -- -- -- -- --

NOTE: TEMPO conditions in [brackets]. Keep in mind TEMPO conditions might be better (lower impact) than prevailing conditions.

Raw TAF
KSTL 311135Z 3112/0118 VRB04KT P6SM -RA VCTS OVC070CB
  TEMPO 3112/3114 3SM TSRA OVC035CB
  FM311500 14008KT P6SM BKN080
  FM311900 15008KT P6SM SCT045
  FM011500 23006KT P6SM VCSH BKN050


Raw METAR
KSTL 311051Z 00000KT 10SM FEW065 SCT100 BKN150 OVC250 22/17 A2998 RMK AO2 SLP141 ACC N AND S T02170167
KSTL 310951Z 00000KT 10SM FEW060 BKN095 OVC200 21/17 A2997 RMK AO2 SLP138 T02110172
KSTL 310851Z 00000KT 10SM FEW065 BKN110 OVC200 22/16 A2998 RMK AO2 RAB34E43 SLP139 P0000 60000 T02220161 50000

METAR Board
Radar Display
Forecast Discussion

TAF Board Legend

Potential Impact
Threat None Slight Moderate High
Visibility (sm) ≥5.1 5.1>X≥3 3>X≥1 <1
Ceiling (100 ft) ≥30.1 30.1>X≥10 10>X≥5 <5
Wind Speed (kt) <10 10≤X<20 20≤X<30 ≥30
Wind Gust (kt) <15 15≤X<25 25≤X<35 ≥35
Weather No Wx Reported VCTS,-TS,-FZRA,SN TS,FZRA +TS,+FZRA,+SN